Terminal Aerodrome Forecast
Issued by NWS Sterling, VA

Home | Current Version | Previous Version | Text Only | Print | Product List | Glossary On
Versions: 1 2 3 4 5 6 7 8 9 10 11 12 13 14
000
FTUS41 KLWX 260500
TAFMRB
TAF
KMRB 260529Z 2606/2706 VRB03KT P6SM BKN130
     FM261700 24008KT P6SM BKN050
     FM270100 19004KT P6SM FEW050 SCT130=

USA.gov is the U.S. government's official web portal to all federal, state and local government web resources and services.